Miguel Núñez

Scout - Huracán
4 Apr 2027
Sonntag
Verarbeitung

Persönlichkeit

Anpassungsfähigkeit (15) Ehrgeiz (15) Kontroverse (16) Loyalität (14) Druck (7) Professionalität (4) Fairness (12) Temperament (7)

Profil

Trainerstil Demokratisch
Lizenz Nationale B
Entschlossenheit 10
Menschenführung 13
Motivation 5
Disziplin 5
Arbeitszufriedenheit
59%
Ermüdung
0%
Rolle Scout
Gehalt 100.6K p/W
Vertrag 14.03.2028

Leistung

Verhalten Gut
Trainingseffektivität
31%
Spielerentwicklung
65%
Verletzungsprävention
50%
Taktische Umsetzung
55%

Letzte Ereignisse

Spieler begutachtet jetzt
Nahm an einer Scouting-Besprechung teil jetzt
Empfahl ein Transferziel jetzt
Spieler begutachtet jetzt
Spieler begutachtet jetzt
Spieler begutachtet 7T her
Spieler begutachtet 7T her
Spieler begutachtet 7T her

Aktuell beobachtet

217
Spieler Verein Status Fähigkeit Vertrauen Beobachtet Zuletzt beobachtet Letzte Stimme
Job Ochieng Real Sociedad Aktiv 102 / 106 40% 5 03.04.2027 -
Moussa Diaby Al-Ittihad Aktiv 148 / 157 40% 2 03.04.2027 -
Stanley Mills Oxford United Aktiv 113 / 128 40% 1 03.04.2027 -
Axel Openda KV Oostende Aktiv 133 / 131 40% 4 01.04.2027 -
Ander Barrenetxea Real Sociedad Aktiv 147 / 155 40% 6 01.04.2027 -
Haji Wright Coventry City Aktiv 133 / 134 40% 2 01.04.2027 -
Morgan Whittaker Middlesbrough Aktiv 131 / 141 40% 5 31.03.2027 -
Aitor Ruibal Betis Aktiv 141 / 143 40% 2 31.03.2027 -
Alexey Batrakov Galatasaray Aktiv 145 / 147 40% 2 30.03.2027 -
Pavel Meleshin Sochi Aktiv 122 / 124 40% 2 30.03.2027 -
Ricky-Jade Jones St. Pauli Aktiv 119 / 126 40% 1 30.03.2027 -
Galeno Al-Ahli Aktiv 143 / 151 40% 3 29.03.2027 -
Valentin Rosier Osasuna Aktiv 125 / 125 40% 2 29.03.2027 -
Emile Smith Rowe Fulham Aktiv 152 / 149 40% 3 28.03.2027 -
Theo Bongonda Al-Faisaly Aktiv 142 / 131 40% 1 28.03.2027 -
Kingsley Coman Al-Nassr Aktiv 152 / 151 40% 1 28.03.2027 -
Fabio Abiuso Carrarese Aktiv 106 / 111 40% 1 28.03.2027 -
Santiago González Sporting Cristal Aktiv 122 / 116 40% 1 28.03.2027 -
Jean-Luc Morin Tours Aktiv 138 / 132 40% 3 27.03.2027 -
Sambou Soumano FC Lorient Aktiv 119 / 120 40% 2 27.03.2027 -
Abu Kamara Portsmouth Aktiv 124 / 125 40% 1 27.03.2027 -
Omari Hutchinson Nottingham Forest Aktiv 140 / 139 40% 3 25.03.2027 -
Chris Ramos Botafogo Aktiv 124 / 132 40% 2 25.03.2027 -
Pablo Solari Spartak Moscow Aktiv 126 / 134 40% 2 25.03.2027 -
Afimico Pululu Al-Hazem Aktiv 134 / 123 40% 11 24.03.2027 -
Luiz Henrique Zenit Aktiv 142 / 150 40% 4 24.03.2027 -
Marquinhos Spartak Moscow Aktiv 133 / 131 40% 3 23.03.2027 -
Esequiel Barco Spartak Moscow Aktiv 135 / 129 40% 4 22.03.2027 -
Ronaldo Rostov Aktiv 135 / 115 40% 1 22.03.2027 -
Mads Roerslev Southampton Aktiv 130 / 124 40% 2 21.03.2027 -
Bart van Rooij Twente Aktiv 130 / 138 40% 1 21.03.2027 -
Musa Barrow Al-Khaleej Aktiv 146 / 140 40% 4 20.03.2027 -
Luciano Gondou CSKA Moscow Aktiv 126 / 123 40% 5 20.03.2027 -
Mohammad Alsalkhadi Damac Aktiv 107 / 117 40% 2 20.03.2027 -
Dilan Ortíz Ufa Aktiv 109 / 104 40% 2 20.03.2027 -
Crysencio Summerville Al-Hilal Aktiv 151 / 144 40% 1 20.03.2027 -
Naoufal Bannis Vitesse Aktiv 106 / 110 40% 1 18.03.2027 -
Fernand Gouré Westerlo Aktiv 114 / 101 40% 1 18.03.2027 -
Felipe Augusto Zenit Aktiv 131 / 142 40% 2 16.03.2027 -
Jaden Philogene Ipswich Town Aktiv 136 / 132 40% 2 16.03.2027 -
Oscar Bobb Fulham Aktiv 138 / 141 40% 1 16.03.2027 -
Gonzalo Plata Dinamo Moscow Aktiv 144 / 143 40% 5 13.03.2027 -
Lautaro De León Andorra Aktiv 114 / 102 40% 1 13.03.2027 -
Jacques Siwe Rubin Aktiv 120 / 124 40% 1 10.03.2027 -
Uriël Van Aalst Willem II Aktiv 113 / 111 40% 1 10.03.2027 -
Kaio Jorge Cruzeiro Aktiv 146 / 146 40% 1 10.03.2027 -
Steven Bergwijn Al-Ittihad Aktiv 145 / 156 40% 1 06.03.2027 -
Tamerlan Musaev CSKA Moscow Aktiv 116 / 120 40% 3 04.03.2027 -
Dardan Shabanhaxhaj Rubin Aktiv 109 / 123 40% 1 04.03.2027 -
Ali Youssef Apollon Aktiv 122 / 131 40% 3 02.03.2027 -
Etiosa Ighodaro Kaizer Chiefs Aktiv 118 / 107 40% 1 02.03.2027 -
Jonás Luna Osasuna Aktiv 109 / 120 40% 1 02.03.2027 -
Mateo Retegui Al-Qadisiyah Aktiv 160 / 148 40% 1 01.03.2027 -
Percy Erasmus SuperSport United Aktiv 129 / 133 40% 5 28.02.2027 -
Sergey Pinyaev Lokomotiv Moscow Aktiv 126 / 136 40% 2 28.02.2027 -
Jordan Larsson Al-Ettifaq Aktiv 117 / 120 40% 1 28.02.2027 -
Vinicius Tobias Shakhtar Aktiv 129 / 132 40% 1 27.02.2027 -
Itumeleng Tau Ajax Cape Town Aktiv 126 / 117 40% 3 26.02.2027 -
Haissem Hassan Bloemfontein Celtic Aktiv 128 / 131 40% 2 25.02.2027 -
Óscar Al-Diriyah Aktiv 128 / 124 40% 3 24.02.2027 -
Noah Sadiki Sunderland Aktiv 140 / 157 40% 2 23.02.2027 -
Teboho Mokoena Mamelodi Sundowns Aktiv 134 / 128 40% 1 23.02.2027 -
Mduduzi Shabalala Kaizer Chiefs Aktiv 119 / 107 40% 1 23.02.2027 -
Chiquinho Alverca Aktiv 137 / 138 40% 1 20.02.2027 -
Freddie Draper Lincoln City Aktiv 103 / 120 40% 1 19.02.2027 -
Luther Zwane Platinum Stars Aktiv 105 / 113 40% 1 19.02.2027 -
Marcelo Allende Mamelodi Sundowns Aktiv 134 / 127 40% 2 18.02.2027 -
Jhon Jhon Zenit Aktiv 129 / 143 40% 1 18.02.2027 -
Brian Figueroa Morelia Aktiv 117 / 99 40% 1 18.02.2027 -
Relebohile Mofokeng Orlando Pirates Aktiv 121 / 131 40% 2 16.02.2027 -
Evidence Makgopa Orlando Pirates Aktiv 116 / 118 40% 4 14.02.2027 -
Miro Dinamo Makhachkala Aktiv 113 / 125 40% 2 14.02.2027 -
Berna CSKA 1948 Aktiv 120 / 110 40% 3 12.02.2027 -
Nabil Alioui Damac Aktiv 119 / 120 40% 2 07.02.2027 -
Armstrong Oko-Flex Levski Aktiv 121 / 111 40% 2 06.02.2027 -
Tenton Yenne Baltika Aktiv 110 / 109 40% 1 06.02.2027 -
Julian Weigl Al-Qadisiyah Aktiv 147 / 131 40% 1 05.02.2027 -
Bernard Tekpetey Ludogorets Aktiv 134 / 130 40% 1 04.02.2027 -
Stav Toriel Hapoel Tel Aviv Aktiv 127 / 123 40% 1 04.02.2027 -
Iqraam Rayners Mamelodi Sundowns Aktiv 128 / 138 40% 1 04.02.2027 -
Fashion Sakala Al-Fayha Aktiv 134 / 115 40% 2 03.02.2027 -
Arthur Gomes Dinamo Moscow Aktiv 133 / 119 40% 1 02.02.2027 -
Brayan León Mamelodi Sundowns Aktiv 109 / 106 40% 2 30.01.2027 -
José Barreto Fehervar Aktiv 112 / 119 40% 3 28.01.2027 -
Franko Kovačević Ferencvaros Aktiv 124 / 110 40% 3 28.01.2027 -
Willy Agada Hapoel Haifa Aktiv 106 / 102 40% 3 28.01.2027 -
Brayan Gil Baltika Aktiv 124 / 116 40% 2 27.01.2027 -
Vladimir Khubulov Dinamo Makhachkala Aktiv 109 / 98 40% 1 26.01.2027 -
Rok Zajc NK Domzale Aktiv 119 / 124 40% 3 25.01.2027 -
Osher Davida Maccabi Tel Aviv Aktiv 131 / 122 40% 1 25.01.2027 -
Mauro Rodrigues Botev Plovdiv Aktiv 110 / 103 40% 1 25.01.2027 -
Vyacheslav Grulev Nizhniy Novgorod Aktiv 112 / 116 40% 1 23.01.2027 -
Amos Inusah Wa All Stars Aktiv 119 / 112 40% 2 22.01.2027 -
Alex Luna Instituto Aktiv 124 / 135 40% 1 22.01.2027 -
Erick Ngcobo Black Aces Aktiv 113 / 111 40% 1 22.01.2027 -
Teboho Tau Ajax Cape Town Aktiv 107 / 121 40% 1 22.01.2027 -
Moses Cobnan Krasnodar Aktiv 112 / 112 40% 1 22.01.2027 -
Ammar Ramadan DAC Dunajska Streda Aktiv 128 / 117 40% 2 21.01.2027 -
Serginho Al Wasl Aktiv 139 / 136 40% 1 20.01.2027 -
Mfundo Vilakazi Kaizer Chiefs Aktiv 119 / 122 40% 1 20.01.2027 -
Matej Trusa DAC Dunajska Streda Aktiv 112 / 118 40% 2 17.01.2027 -
Reda Khadra Qarabag Aktiv 128 / 138 40% 1 15.01.2027 -
Oleh Ocheretko Shakhtar Aktiv 137 / 134 40% 1 15.01.2027 -
Matheus Davó Maccabi Netanya Aktiv 127 / 108 40% 2 11.01.2027 -
Danyil Alefirenko Chornomorets Aktiv 112 / 98 40% 2 11.01.2027 -
Mikhail Ignatov Sochi Aktiv 106 / 113 40% 1 10.01.2027 -
Jerome Karelse Golden Arrows Aktiv 96 / 95 40% 1 09.01.2027 -
Peter Itodo Metalist Aktiv 106 / 119 40% 1 09.01.2027 -
Milán Tóth Vasas Aktiv 105 / 100 40% 1 07.01.2027 -
Radek Šiler Podbrezova Aktiv 113 / 109 40% 1 07.01.2027 -
Lassina Traoré Shakhtar Aktiv 126 / 115 40% 1 06.01.2027 -
Exequiel Zeballos Boca Juniors Aktiv 127 / 126 40% 1 04.01.2027 -
Csanád Vilmos Dénes Debrecen Aktiv 94 / 104 40% 1 01.01.2027 -
Luciano Nieto Temperley Aktiv 118 / 113 76% 1 14.12.2026 Befürworten
Ángel Correa River Plate Aktiv 138 / 144 40% 4 29.11.2026 -
Assad Al Hamlawi Universitatea Craiova Aktiv 129 / 126 40% 3 29.11.2026 -
Daniil Khudyakov Sturm Graz Aktiv 118 / 130 40% 2 29.11.2026 -
Veljko Birmančević Ferencvaros Aktiv 133 / 142 40% 1 29.11.2026 -
Ashkan Shojaei Siah Jamegan Aktiv 134 / 131 40% 1 26.11.2026 -
Jhonatan Candia Barracas Central Aktiv 117 / 128 40% 3 25.11.2026 -
Domagoj Drožđek Tractor Aktiv 136 / 117 40% 4 25.11.2026 -
Yorbe Vertessen Red Bull Salzburg Aktiv 126 / 131 40% 1 24.11.2026 -
Ignacio Russo Tigre Aktiv 120 / 132 40% 5 20.11.2026 -
Emmanuel Boateng Hapoel Tel Aviv Aktiv 122 / 128 40% 1 20.11.2026 -
Nicolás Fernández Belgrano Aktiv 125 / 133 40% 5 19.11.2026 -
Diego Romero Universitario Aktiv 123 / 123 40% 3 19.11.2026 -
Moussa Dembélé Al-Ettifaq Aktiv 137 / 127 40% 3 19.11.2026 -
Allahyar Sayyadmanesh Lech Aktiv 136 / 119 40% 1 17.11.2026 -
Nahuel Ulariaga Al Ahli Aktiv 130 / 125 40% 2 14.11.2026 -
João Klauss LA Galaxy Aktiv 123 / 120 40% 3 13.11.2026 -
Tomáš Chorý Slavia Prague Aktiv 139 / 150 40% 2 12.11.2026 -
Antony Alonso Deportivo Riestra Aktiv 121 / 114 40% 1 12.11.2026 -
Tadeo Allende Inter Miami CF Aktiv 118 / 113 40% 1 11.11.2026 -
Sebastián Villa Boca Juniors Aktiv 122 / 131 40% 1 11.11.2026 -
Yoshan Valois Lanús Aktiv 112 / 124 40% 2 10.11.2026 -
Victor Aznar Cádiz Aktiv 129 / 127 40% 2 09.11.2026 -
Adrián Alavés Aktiv 112 / 110 40% 2 09.11.2026 -
Nahuel Manganelli Dinamo Batumi Aktiv 109 / 119 40% 1 09.11.2026 -
Franko Kolić Istra 1961 Aktiv 101 / 101 40% 1 08.11.2026 -
Johannes Eggestein Austria Wien Aktiv 120 / 131 40% 1 07.11.2026 -
Strahinja Manojlović Radnicki Nis Aktiv 108 / 113 40% 1 03.11.2026 -
Cristopher Varela Deportivo La Guaira Aktiv 117 / 113 40% 1 01.11.2026 -
Roman Celentano FC Cincinnati Aktiv 125 / 115 40% 1 01.11.2026 -
Max Fenger IFK Goteborg Aktiv 119 / 124 40% 1 31.10.2026 -
Rafael Navarro Colorado Rapids Aktiv 126 / 126 40% 1 30.10.2026 -
Luis Ingolotti Atlético Tucumán Aktiv 116 / 117 40% 2 28.10.2026 -
Niklas Steffen Thun Aktiv 117 / 108 40% 1 28.10.2026 -
Felipe Zenobio Tigre Aktiv 126 / 129 40% 3 26.10.2026 -
Armindo Sieb Los Angeles Football Club Aktiv 113 / 131 40% 1 26.10.2026 -
Sergiu Ratiu Pandurii Aktiv 105 / 112 40% 1 26.10.2026 -
Aldo Pérez Guarani Aktiv 110 / 108 40% 1 26.10.2026 -
Talles Magno New York City Aktiv 135 / 123 40% 1 25.10.2026 -
Christian Kouamé Aris Thessaloniki Aktiv 122 / 121 40% 1 25.10.2026 -
Manuel Roffo Cerro Porteno Aktiv 131 / 127 40% 2 21.10.2026 -
Pascal Loretz Luzern Aktiv 127 / 121 40% 2 21.10.2026 -
Mandla Jali SuperSport United Aktiv 120 / 110 40% 2 21.10.2026 -
Agustín Ruberto River Plate Aktiv 119 / 133 40% 1 19.10.2026 -
Nahuel Galardi Maipú Aktiv 113 / 105 40% 2 18.10.2026 -
Esteban Glellel Shonan Bellmare Aktiv 116 / 110 40% 2 18.10.2026 -
Leo Ceara Kashima Antlers Aktiv 136 / 135 40% 1 14.10.2026 -
David Barbona Defensa y Justicia Aktiv 123 / 115 40% 1 14.10.2026 -
Diego Valencia Gornik Leczna Aktiv 109 / 114 40% 1 13.10.2026 -
Marcelo Estigarribia Unión de Santa Fe Aktiv 116 / 120 40% 1 12.10.2026 -
Agustín Venezia Iquique Aktiv 107 / 116 40% 1 11.10.2026 -
Chris Brady Chicago Fire Aktiv 126 / 139 40% 1 09.10.2026 -
Evidence Billiat Ajax Cape Town Aktiv 111 / 120 40% 1 09.10.2026 -
Francisco Salerno Defensores Unidos Aktiv 100 / 107 40% 1 06.10.2026 -
Patrick Schulte Columbus Crew Aktiv 127 / 116 40% 1 06.10.2026 -
Juan Rocca Gimnasia y Tiro Aktiv 113 / 100 40% 1 06.10.2026 -
Taisei Miyashiro Seattle Sounders Aktiv 128 / 132 40% 3 05.10.2026 -
Nardin Mulahusejnović Vojvodina Aktiv 131 / 118 40% 1 05.10.2026 -
Ola Solbakken FC Nordsjaelland Aktiv 127 / 119 40% 1 05.10.2026 -
CJ dos Santos San Diego Football Club Aktiv 108 / 99 40% 1 03.10.2026 -
Jordan Morris Seattle Sounders Aktiv 120 / 116 40% 2 30.09.2026 -
Ignacio Ramírez Newell's Old Boys Aktiv 120 / 125 40% 1 30.09.2026 -
Dániel Gazdag Columbus Crew Aktiv 121 / 126 40% 3 29.09.2026 -
Rodrigo Morínigo Libertad Aktiv 114 / 118 40% 2 29.09.2026 -
Kévin Denkey FC Cincinnati Aktiv 130 / 130 40% 2 29.09.2026 -
Manfred Ugalde Spartak Moscow Aktiv 123 / 126 40% 1 29.09.2026 -
Ştefan Târnovanu FCSB Aktiv 115 / 109 40% 1 29.09.2026 -
Santino Barbi Talleres Aktiv 105 / 109 40% 2 28.09.2026 -
Anthony Racioppi Sion Aktiv 113 / 115 40% 1 28.09.2026 -
Dor Turgeman New England Revolution Aktiv 130 / 136 40% 1 27.09.2026 -
Pep Biel Charlotte Football Club Aktiv 135 / 139 40% 2 26.09.2026 -
Luca Orellano Monterrey Aktiv 137 / 136 40% 4 23.09.2026 -
Facundo Batista Penarol Aktiv 120 / 115 40% 1 23.09.2026 -
Timo Werner San Jose Earthquakes Aktiv 133 / 126 40% 2 21.09.2026 -
Hugo Cuypers Monterrey Aktiv 121 / 131 40% 4 19.09.2026 -
Tomás Molina Argentinos Juniors Aktiv 126 / 124 40% 4 19.09.2026 -
Xavier Biscayzacú Defensor Sporting Aktiv 129 / 124 40% 1 19.09.2026 -
Cesar Corona Veracruz Aktiv 129 / 138 40% 3 17.09.2026 -
Justo Giani Universidad Catolica Aktiv 118 / 127 40% 2 16.09.2026 -
Ismael Díaz Leon Aktiv 129 / 125 40% 4 15.09.2026 -
Juan Cruz de los Santos Nacional Aktiv 119 / 119 40% 3 15.09.2026 -
Ivo Costantino Danubio Aktiv 114 / 114 40% 1 15.09.2026 -
Jefry Zapata Once Caldas Aktiv 116 / 112 40% 1 15.09.2026 -
Bruno Barticciotto Talleres Aktiv 122 / 132 40% 2 12.09.2026 -
Mousa Meunier KV Oostende Aktiv 129 / 128 40% 1 12.09.2026 -
Efraín Álvarez Guadalajara Aktiv 134 / 120 40% 2 11.09.2026 -
Luca Langoni New England Revolution Aktiv 120 / 137 40% 1 11.09.2026 -
Enzo Vázquez Central Norte Aktiv 102 / 107 40% 1 10.09.2026 -
Jhojan Julio Queretaro Aktiv 126 / 111 40% 1 08.09.2026 -
Cheikh Sabaly Vancouver Whitecaps Aktiv 125 / 130 40% 1 06.09.2026 -
Ozziel Herrera Tigres Aktiv 126 / 134 40% 2 05.09.2026 -
Diego Rossi Monterrey Aktiv 139 / 132 40% 3 04.09.2026 -
Liel Abada Charlotte Football Club Aktiv 133 / 126 40% 1 31.08.2026 -
Luciano Cosentino Wanderers Aktiv 125 / 121 40% 1 31.08.2026 -
Alex Valera Universitario Aktiv 128 / 123 40% 2 30.08.2026 -
Diber Cambindo Leon Aktiv 135 / 123 40% 2 30.08.2026 -
Theo Corbeanu Toronto FC Aktiv 114 / 122 40% 1 30.08.2026 -
Leonardo Campana New England Revolution Aktiv 134 / 122 40% 1 22.08.2026 -
Myrto Uzuni Austin FC Aktiv 123 / 140 40% 1 19.08.2026 -
Álex Arce Independiente Rivadavia Aktiv 126 / 125 40% 1 16.08.2026 -
Guillermo Martínez Pumas UNAM Aktiv 121 / 127 40% 1 16.08.2026 -
Rafael Santos Borré River Plate Aktiv 131 / 125 40% 1 14.08.2026 -
Federico Girotti Alianza Lima Aktiv 121 / 123 40% 1 12.08.2026 -
Santiago Solari Racing Club Aktiv 122 / 118 40% 1 11.08.2026 -